createdAt,value
2022-12-16T00:01:03.612Z,100.00
2022-12-16T00:03:31.074Z,100.00
2022-12-16T00:05:57.900Z,100.00
2022-12-16T00:08:24.469Z,100.00
2022-12-16T00:10:54.902Z,100.00
2022-12-16T00:13:21.665Z,100.00
2022-12-16T00:15:48.315Z,100.00
2022-12-16T00:18:15.555Z,100.00
2022-12-16T00:20:46.126Z,100.00
2022-12-16T00:23:13.126Z,100.00
2022-12-16T00:25:41.775Z,100.00
2022-12-16T00:28:08.344Z,100.00
2022-12-16T00:30:34.963Z,100.00
2022-12-16T00:33:01.597Z,100.00
2022-12-16T00:35:28.847Z,100.00
2022-12-16T00:37:55.384Z,100.00
2022-12-16T00:40:22.138Z,100.00
2022-12-16T00:42:49.126Z,100.00
2022-12-16T00:45:15.789Z,100.00
2022-12-16T00:47:43.898Z,100.00
2022-12-16T00:50:11.380Z,100.00
2022-12-16T00:52:38.038Z,100.00
2022-12-16T00:55:04.828Z,100.00
2022-12-16T00:57:31.396Z,100.00
2022-12-16T00:59:58.041Z,100.00
2022-12-16T01:02:24.752Z,100.00
2022-12-16T01:04:51.568Z,100.00
2022-12-16T01:07:18.903Z,100.00
2022-12-16T01:09:45.437Z,100.00
2022-12-16T01:12:12.024Z,100.00
2022-12-16T01:14:38.635Z,100.00
2022-12-16T01:17:05.231Z,100.00
2022-12-16T01:19:31.859Z,100.00
2022-12-16T01:21:58.459Z,100.00
2022-12-16T01:24:25.069Z,100.00
2022-12-16T01:26:51.608Z,100.00
2022-12-16T01:29:19.058Z,100.00
2022-12-16T01:31:45.655Z,100.00
2022-12-16T01:34:12.238Z,100.00
2022-12-16T01:36:38.798Z,100.00
2022-12-16T01:39:05.422Z,100.00
2022-12-16T01:41:32.010Z,100.00
2022-12-16T01:44:15.261Z,100.00
2022-12-16T01:46:43.495Z,100.00
2022-12-16T01:49:17.317Z,100.00
2022-12-16T01:51:50.529Z,100.00
2022-12-16T01:54:22.632Z,100.00
2022-12-16T01:56:55.738Z,100.00
2022-12-16T01:59:23.255Z,100.00
2022-12-16T02:01:49.961Z,100.00
2022-12-16T02:04:16.711Z,100.00
2022-12-16T02:06:43.273Z,100.00
2022-12-16T02:09:11.775Z,100.00
2022-12-16T02:11:41.154Z,100.00
2022-12-16T02:14:07.684Z,100.00
2022-12-16T02:16:34.325Z,100.00
2022-12-16T02:19:01.511Z,100.00
2022-12-16T02:21:43.229Z,100.00
2022-12-16T02:24:21.974Z,100.00
2022-12-16T02:27:17.769Z,100.00
2022-12-16T02:30:13.757Z,100.00
2022-12-16T02:32:46.233Z,100.00
2022-12-16T02:35:21.808Z,100.00
2022-12-16T02:38:08.628Z,100.00
2022-12-16T02:40:49.087Z,100.00
2022-12-16T02:43:20.638Z,100.00
2022-12-16T02:45:47.816Z,100.00
2022-12-16T02:48:14.488Z,100.00
2022-12-16T02:50:45.435Z,100.00
2022-12-16T02:53:12.557Z,100.00
2022-12-16T02:55:42.295Z,100.00
2022-12-16T02:58:27.329Z,100.00
2022-12-16T03:01:02.702Z,100.00
2022-12-16T03:03:34.291Z,100.00
2022-12-16T03:06:02.079Z,100.00
2022-12-16T03:08:35.214Z,100.00
2022-12-16T03:11:03.569Z,100.00
2022-12-16T03:13:33.696Z,100.00
2022-12-16T03:16:01.864Z,100.00
2022-12-16T03:18:28.720Z,100.00
2022-12-16T03:21:05.901Z,100.00
2022-12-16T03:23:36.642Z,100.00
2022-12-16T03:26:06.139Z,100.00
2022-12-16T03:28:43.408Z,100.00
2022-12-16T03:31:20.790Z,100.00
2022-12-16T03:33:53.665Z,100.00
2022-12-16T03:36:22.334Z,100.00
2022-12-16T03:38:50.129Z,100.00
2022-12-16T03:41:17.994Z,100.00
2022-12-16T03:43:44.882Z,100.00
2022-12-16T03:46:12.070Z,100.00
2022-12-16T03:48:45.081Z,100.00
2022-12-16T03:51:11.749Z,100.00
2022-12-16T03:53:38.359Z,100.00
2022-12-16T03:56:04.995Z,100.00
2022-12-16T03:58:31.607Z,100.00
2022-12-16T04:00:58.183Z,100.00
2022-12-16T04:03:24.808Z,100.00
2022-12-16T04:05:51.389Z,100.00
2022-12-16T04:08:18.058Z,100.00
2022-12-16T04:11:03.158Z,100.00
2022-12-16T04:13:48.153Z,100.00
2022-12-16T04:16:34.557Z,100.00
2022-12-16T04:19:20.316Z,100.00
2022-12-16T04:22:05.552Z,100.00
2022-12-16T04:24:32.469Z,100.00
2022-12-16T04:27:17.506Z,100.00
2022-12-16T04:30:02.942Z,100.00
2022-12-16T04:32:49.932Z,100.00
2022-12-16T04:35:35.263Z,100.00
2022-12-16T04:38:20.759Z,100.00
2022-12-16T04:41:06.071Z,100.00
2022-12-16T04:43:51.411Z,100.00
2022-12-16T04:46:36.603Z,100.00
2022-12-16T04:49:21.973Z,100.00
2022-12-16T04:52:07.359Z,100.00
2022-12-16T04:54:52.773Z,100.00
2022-12-16T04:57:38.277Z,100.00
2022-12-16T05:00:24.101Z,100.00
2022-12-16T05:03:09.523Z,100.00
2022-12-16T05:05:54.990Z,100.00
2022-12-16T05:08:40.284Z,100.00
2022-12-16T05:11:25.596Z,100.00
2022-12-16T05:14:10.820Z,100.00
2022-12-16T05:16:56.044Z,100.00
2022-12-16T05:19:41.632Z,100.00
2022-12-16T05:22:26.969Z,100.00
2022-12-16T05:25:12.162Z,100.00
2022-12-16T05:27:57.515Z,100.00
2022-12-16T05:30:42.789Z,100.00
2022-12-16T05:33:28.375Z,100.00
2022-12-16T05:36:13.631Z,100.00
2022-12-16T05:38:59.044Z,100.00
2022-12-16T05:41:44.197Z,100.00
2022-12-16T05:44:29.544Z,100.00
2022-12-16T05:47:14.588Z,100.00
2022-12-16T05:50:00.187Z,100.00
2022-12-16T05:52:45.369Z,100.00
2022-12-16T05:55:34.107Z,100.00
2022-12-16T05:58:19.545Z,100.00
2022-12-16T06:01:04.861Z,100.00
2022-12-16T06:03:50.593Z,100.00
2022-12-16T06:06:35.667Z,100.00
2022-12-16T06:09:20.964Z,100.00
2022-12-16T06:12:06.300Z,100.00
2022-12-16T06:14:51.544Z,100.00
2022-12-16T06:17:37.036Z,100.00
2022-12-16T06:20:22.583Z,100.00
2022-12-16T06:23:11.300Z,100.00
2022-12-16T06:25:56.670Z,100.00
2022-12-16T06:28:45.775Z,100.00
2022-12-16T06:31:31.460Z,100.00
2022-12-16T06:34:16.915Z,100.00
2022-12-16T06:37:02.208Z,100.00
2022-12-16T06:39:51.408Z,100.00
2022-12-16T06:42:38.040Z,100.00
2022-12-16T06:45:32.842Z,100.00
2022-12-16T06:48:19.635Z,100.00
2022-12-16T06:51:04.951Z,100.00
2022-12-16T06:53:50.153Z,100.00
2022-12-16T06:56:35.694Z,100.00
2022-12-16T06:59:20.969Z,100.00
2022-12-16T07:02:06.538Z,100.00
2022-12-16T07:04:51.642Z,100.00
2022-12-16T07:07:36.999Z,100.00
2022-12-16T07:10:22.546Z,100.00
2022-12-16T07:13:07.789Z,100.00
2022-12-16T07:15:53.329Z,100.00
2022-12-16T07:18:38.541Z,100.00
2022-12-16T07:21:23.908Z,100.00
2022-12-16T07:24:09.309Z,100.00
2022-12-16T07:26:54.982Z,100.00
2022-12-16T07:29:47.935Z,100.00
2022-12-16T07:32:33.283Z,100.00
2022-12-16T07:35:18.475Z,100.00
2022-12-16T07:38:03.734Z,100.00
2022-12-16T07:40:49.196Z,100.00
2022-12-16T07:43:34.674Z,100.00
2022-12-16T07:46:20.345Z,100.00
2022-12-16T07:49:05.754Z,100.00
2022-12-16T07:51:51.132Z,100.00
2022-12-16T07:54:36.366Z,100.00
2022-12-16T07:57:21.619Z,100.00
2022-12-16T08:00:06.794Z,100.00
2022-12-16T08:02:57.361Z,100.00
2022-12-16T08:05:42.951Z,100.00
2022-12-16T08:08:28.423Z,100.00
2022-12-16T08:11:13.691Z,100.00
2022-12-16T08:13:59.016Z,100.00
2022-12-16T08:16:44.439Z,100.00
2022-12-16T08:19:29.545Z,100.00
2022-12-16T08:22:14.944Z,100.00
2022-12-16T08:25:00.191Z,100.00
2022-12-16T08:27:45.501Z,100.00
2022-12-16T08:30:30.634Z,100.00
2022-12-16T08:33:19.683Z,100.00
2022-12-16T08:36:05.788Z,100.00
2022-12-16T08:38:51.103Z,100.00
2022-12-16T08:41:36.549Z,100.00
2022-12-16T08:44:21.812Z,100.00
2022-12-16T08:47:07.138Z,100.00
2022-12-16T08:49:54.806Z,100.00
2022-12-16T08:52:43.062Z,100.00
2022-12-16T08:55:29.967Z,100.00
2022-12-16T08:58:15.566Z,100.00
2022-12-16T09:01:06.615Z,100.00
2022-12-16T09:03:52.698Z,100.00
2022-12-16T09:06:40.731Z,100.00
2022-12-16T09:09:27.071Z,100.00
2022-12-16T09:12:12.320Z,100.00
2022-12-16T09:14:57.518Z,100.00
2022-12-16T09:17:42.964Z,100.00
2022-12-16T09:20:28.322Z,100.00
2022-12-16T09:23:13.696Z,100.00
2022-12-16T09:25:59.088Z,100.00
2022-12-16T09:28:44.268Z,100.00
2022-12-16T09:31:29.680Z,100.00
2022-12-16T09:34:14.972Z,100.00
2022-12-16T09:37:07.904Z,100.00
2022-12-16T09:39:53.035Z,100.00
2022-12-16T09:43:01.722Z,100.00
2022-12-16T09:45:47.185Z,100.00
2022-12-16T09:48:47.996Z,100.00
2022-12-16T09:51:33.545Z,100.00
2022-12-16T09:54:19.322Z,100.00
2022-12-16T09:57:05.100Z,100.00
2022-12-16T09:59:54.625Z,100.00
2022-12-16T10:02:41.089Z,100.00
2022-12-16T10:05:30.842Z,100.00
2022-12-16T10:08:23.675Z,100.00
2022-12-16T10:11:17.896Z,100.00
2022-12-16T10:14:03.393Z,100.00
2022-12-16T10:17:12.526Z,100.00
2022-12-16T10:20:09.190Z,100.00
2022-12-16T10:23:02.231Z,100.00
2022-12-16T10:25:51.032Z,100.00
2022-12-16T10:28:38.543Z,100.00
2022-12-16T10:31:31.941Z,100.00
2022-12-16T10:34:17.581Z,100.00
2022-12-16T10:37:09.183Z,100.00
2022-12-16T10:40:00.723Z,100.00
2022-12-16T10:42:47.375Z,100.00
2022-12-16T10:45:38.718Z,100.00
2022-12-16T10:48:23.810Z,100.00
2022-12-16T10:51:09.206Z,100.00
2022-12-16T10:53:57.514Z,100.00
2022-12-16T10:57:01.472Z,100.00
2022-12-16T10:59:57.492Z,100.00
2022-12-16T11:02:44.166Z,100.00
2022-12-16T11:05:49.796Z,100.00
2022-12-16T11:08:41.102Z,100.00
2022-12-16T11:11:38.638Z,100.00
2022-12-16T11:14:59.530Z,100.00
2022-12-16T11:17:47.978Z,100.00
2022-12-16T11:20:36.342Z,100.00
2022-12-16T11:23:31.771Z,100.00
2022-12-16T11:26:35.855Z,100.00
2022-12-16T11:29:27.367Z,100.00
2022-12-16T11:32:31.593Z,100.00
2022-12-16T11:35:18.456Z,100.00
2022-12-16T11:38:05.076Z,100.00
2022-12-16T11:40:50.310Z,100.00
2022-12-16T11:43:37.195Z,100.00
2022-12-16T11:46:25.239Z,100.00
2022-12-16T11:49:26.676Z,100.00
2022-12-16T11:52:35.962Z,100.00
2022-12-16T11:55:41.754Z,100.00
2022-12-16T11:58:45.249Z,100.00
2022-12-16T12:01:32.788Z,100.00
2022-12-16T12:04:17.983Z,100.00
2022-12-16T12:07:09.384Z,100.00
2022-12-16T12:09:57.683Z,100.00
2022-12-16T12:12:50.569Z,100.00
2022-12-16T12:15:43.634Z,100.00
2022-12-16T12:18:35.286Z,100.00
2022-12-16T12:21:20.675Z,100.00
2022-12-16T12:24:11.959Z,67.28
2022-12-16T12:27:02.631Z,66.05
2022-12-16T12:29:50.691Z,62.96
2022-12-16T12:32:36.046Z,61.89
2022-12-16T12:35:33.561Z,59.73
2022-12-16T12:38:32.237Z,59.16
2022-12-16T12:41:37.944Z,61.04
2022-12-16T12:44:24.722Z,55.79
2022-12-16T12:47:16.038Z,55.00
2022-12-16T12:50:06.677Z,54.51
2022-12-16T12:53:06.131Z,56.38
2022-12-16T12:55:51.072Z,56.88
2022-12-16T12:58:37.474Z,56.83
2022-12-16T13:01:25.653Z,56.29
2022-12-16T13:04:14.098Z,56.99
2022-12-16T13:06:59.374Z,57.34
2022-12-16T13:09:48.107Z,54.19
2022-12-16T13:12:33.247Z,51.88
2022-12-16T13:15:18.237Z,50.32
2022-12-16T13:18:22.112Z,48.42
2022-12-16T13:21:17.422Z,46.49
2022-12-16T13:24:03.966Z,47.03
2022-12-16T13:26:50.862Z,46.51
2022-12-16T13:29:44.023Z,48.29
2022-12-16T13:32:37.545Z,48.42
2022-12-16T13:35:24.710Z,48.44
2022-12-16T13:38:14.016Z,47.76
2022-12-16T13:41:08.625Z,49.60
2022-12-16T13:44:03.036Z,49.72
2022-12-16T13:46:59.242Z,55.38
2022-12-16T13:50:03.550Z,59.16
2022-12-16T13:52:54.884Z,60.14
2022-12-16T13:55:47.341Z,64.93
2022-12-16T13:58:38.020Z,67.04
2022-12-16T14:01:25.391Z,66.92
2022-12-16T14:04:11.454Z,65.76
2022-12-16T14:06:59.167Z,68.60
2022-12-16T14:09:47.228Z,73.06
2022-12-16T14:12:57.278Z,78.44
2022-12-16T14:16:01.284Z,93.44
2022-12-16T14:18:55.168Z,100.00
2022-12-16T14:21:46.479Z,100.00
2022-12-16T14:24:39.084Z,100.00
2022-12-16T14:27:30.452Z,100.00
2022-12-16T14:30:15.841Z,100.00
2022-12-16T14:33:00.836Z,100.00
2022-12-16T14:35:46.645Z,100.00
2022-12-16T14:38:45.824Z,100.00
2022-12-16T14:41:31.670Z,100.00
2022-12-16T14:44:17.136Z,100.00
2022-12-16T14:47:07.107Z,100.00
2022-12-16T14:49:52.272Z,100.00
2022-12-16T14:52:40.663Z,100.00
2022-12-16T14:55:39.988Z,100.00
2022-12-16T14:58:28.648Z,100.00
2022-12-16T15:01:16.648Z,100.00
2022-12-16T15:04:03.647Z,100.00
2022-12-16T15:06:51.980Z,100.00
2022-12-16T15:09:39.731Z,100.00
2022-12-16T15:12:26.180Z,100.00
2022-12-16T15:15:12.443Z,100.00
2022-12-16T15:18:03.296Z,100.00
2022-12-16T15:20:49.583Z,100.00
2022-12-16T15:23:42.872Z,100.00
2022-12-16T15:26:27.991Z,100.00
2022-12-16T15:29:13.125Z,100.00
2022-12-16T15:32:03.379Z,100.00
2022-12-16T15:34:49.208Z,100.00
2022-12-16T15:37:39.766Z,100.00
2022-12-16T15:40:37.686Z,100.00
2022-12-16T15:43:23.209Z,100.00
2022-12-16T15:46:09.103Z,100.00
2022-12-16T15:48:55.632Z,100.00
2022-12-16T15:51:47.183Z,100.00
2022-12-16T15:54:42.617Z,100.00
2022-12-16T15:57:48.357Z,100.00
2022-12-16T16:00:40.019Z,100.00
2022-12-16T16:03:35.841Z,100.00
2022-12-16T16:06:21.254Z,100.00
2022-12-16T16:09:10.287Z,100.00
2022-12-16T16:11:55.286Z,100.00
2022-12-16T16:14:40.571Z,100.00
2022-12-16T16:17:41.941Z,100.00
2022-12-16T16:20:32.242Z,100.00
2022-12-16T16:23:18.229Z,100.00
2022-12-16T16:26:04.676Z,100.00
2022-12-16T16:28:50.009Z,100.00
2022-12-16T16:31:35.449Z,100.00
2022-12-16T16:34:20.885Z,100.00
2022-12-16T16:37:10.665Z,100.00
2022-12-16T16:39:56.188Z,100.00
2022-12-16T16:42:41.460Z,100.00
2022-12-16T16:45:26.832Z,100.00
2022-12-16T16:48:21.770Z,100.00
2022-12-16T16:51:07.150Z,100.00
2022-12-16T16:53:52.415Z,100.00
2022-12-16T16:56:37.798Z,100.00
2022-12-16T16:59:23.133Z,100.00
2022-12-16T17:02:08.688Z,100.00
2022-12-16T17:04:54.037Z,100.00
2022-12-16T17:07:39.077Z,100.00
2022-12-16T17:10:24.411Z,100.00
2022-12-16T17:13:09.716Z,100.00
2022-12-16T17:15:55.547Z,100.00
2022-12-16T17:18:45.659Z,100.00
2022-12-16T17:21:33.228Z,100.00
2022-12-16T17:24:18.499Z,100.00
2022-12-16T17:27:04.206Z,100.00
2022-12-16T17:29:49.547Z,100.00
2022-12-16T17:32:35.036Z,100.00
2022-12-16T17:35:20.474Z,100.00
2022-12-16T17:38:05.770Z,100.00
2022-12-16T17:40:51.079Z,100.00
2022-12-16T17:43:36.600Z,100.00
2022-12-16T17:46:26.688Z,100.00
2022-12-16T17:49:13.073Z,100.00
2022-12-16T17:51:58.712Z,100.00
2022-12-16T17:54:44.007Z,100.00
2022-12-16T17:57:29.645Z,100.00
2022-12-16T18:00:14.912Z,100.00
2022-12-16T18:03:00.553Z,100.00
2022-12-16T18:05:46.302Z,100.00
2022-12-16T18:08:31.697Z,100.00
2022-12-16T18:11:17.740Z,100.00
2022-12-16T18:14:03.274Z,100.00
2022-12-16T18:16:49.223Z,100.00
2022-12-16T18:19:35.096Z,100.00
2022-12-16T18:22:22.015Z,100.00
2022-12-16T18:25:07.587Z,100.00
2022-12-16T18:27:54.348Z,100.00
2022-12-16T18:30:39.827Z,100.00
2022-12-16T18:33:25.198Z,100.00
2022-12-16T18:36:10.504Z,100.00
2022-12-16T18:38:56.033Z,100.00
2022-12-16T18:41:41.649Z,100.00
2022-12-16T18:44:29.951Z,100.00
2022-12-16T18:47:15.110Z,100.00
2022-12-16T18:50:00.498Z,100.00
2022-12-16T18:52:45.634Z,100.00
2022-12-16T18:55:30.926Z,100.00
2022-12-16T18:58:42.677Z,100.00
2022-12-16T19:01:26.595Z,100.00
2022-12-16T19:04:12.449Z,100.00
2022-12-16T19:06:57.902Z,100.00
2022-12-16T19:09:43.345Z,100.00
2022-12-16T19:12:29.143Z,100.00
2022-12-16T19:15:14.221Z,100.00
2022-12-16T19:17:59.560Z,100.00
2022-12-16T19:20:45.026Z,100.00
2022-12-16T19:23:32.717Z,100.00
2022-12-16T19:26:19.340Z,100.00
2022-12-16T19:29:04.665Z,100.00
2022-12-16T19:31:50.156Z,100.00
2022-12-16T19:34:35.488Z,100.00
2022-12-16T19:37:20.890Z,100.00
2022-12-16T19:40:06.392Z,100.00
2022-12-16T19:42:51.657Z,100.00
2022-12-16T19:45:37.197Z,100.00
2022-12-16T19:48:23.646Z,100.00
2022-12-16T19:51:15.003Z,100.00
2022-12-16T19:54:00.520Z,100.00
2022-12-16T19:56:46.247Z,100.00
2022-12-16T19:59:34.515Z,100.00
2022-12-16T20:02:19.980Z,100.00
2022-12-16T20:05:05.204Z,100.00
2022-12-16T20:07:50.543Z,100.00
2022-12-16T20:10:36.797Z,100.00
2022-12-16T20:16:33.466Z,100.00
2022-12-16T20:19:18.970Z,100.00
2022-12-16T20:22:06.929Z,100.00
2022-12-16T20:24:56.446Z,100.00
2022-12-16T20:27:42.409Z,100.00
2022-12-16T20:30:27.894Z,100.00
2022-12-16T20:33:15.272Z,100.00
2022-12-16T20:36:00.763Z,100.00
2022-12-16T20:38:46.047Z,100.00
2022-12-16T20:41:31.600Z,100.00
2022-12-16T20:44:16.687Z,100.00
2022-12-16T20:47:02.117Z,100.00
2022-12-16T20:49:47.312Z,100.00
2022-12-16T20:52:32.806Z,100.00
2022-12-16T20:55:18.131Z,100.00
2022-12-16T20:58:03.645Z,100.00
2022-12-16T21:00:49.109Z,100.00
2022-12-16T21:03:34.326Z,100.00
2022-12-16T21:06:19.672Z,100.00
2022-12-16T21:09:04.733Z,100.00
2022-12-16T21:11:50.202Z,100.00
2022-12-16T21:14:35.354Z,100.00
2022-12-16T21:17:20.677Z,100.00
2022-12-16T21:20:05.917Z,100.00
2022-12-16T21:22:51.191Z,100.00
2022-12-16T21:25:38.386Z,100.00
2022-12-16T21:28:23.820Z,100.00
2022-12-16T21:31:09.132Z,100.00
2022-12-16T21:33:55.468Z,100.00
2022-12-16T21:36:40.626Z,100.00
2022-12-16T21:39:26.124Z,100.00
2022-12-16T21:42:11.431Z,100.00
2022-12-16T21:44:56.684Z,100.00
2022-12-16T21:47:42.169Z,100.00
2022-12-16T21:50:27.981Z,100.00
2022-12-16T21:53:13.448Z,100.00
2022-12-16T21:55:58.748Z,100.00
2022-12-16T21:58:44.095Z,100.00
2022-12-16T22:01:29.689Z,100.00
2022-12-16T22:04:14.811Z,100.00
2022-12-16T22:07:00.341Z,100.00
2022-12-16T22:09:45.642Z,100.00
2022-12-16T22:12:31.067Z,100.00
2022-12-16T22:15:16.513Z,100.00
2022-12-16T22:18:01.674Z,100.00
2022-12-16T22:20:47.222Z,100.00
2022-12-16T22:23:32.262Z,100.00
2022-12-16T22:26:18.224Z,100.00
2022-12-16T22:29:03.601Z,100.00
2022-12-16T22:31:49.529Z,100.00
2022-12-16T22:34:34.797Z,100.00
2022-12-16T22:37:20.043Z,100.00
2022-12-16T22:40:05.491Z,100.00
2022-12-16T22:42:50.924Z,100.00
2022-12-16T22:45:37.403Z,100.00
2022-12-16T22:48:22.690Z,100.00
2022-12-16T22:51:08.090Z,100.00
2022-12-16T22:53:53.550Z,100.00
2022-12-16T22:56:38.888Z,100.00
2022-12-16T22:59:24.275Z,100.00
2022-12-16T23:02:09.639Z,100.00
2022-12-16T23:04:55.056Z,100.00
2022-12-16T23:07:42.864Z,100.00
2022-12-16T23:10:28.206Z,100.00
2022-12-16T23:13:13.489Z,100.00
2022-12-16T23:15:58.973Z,100.00
2022-12-16T23:18:44.178Z,100.00
2022-12-16T23:21:34.224Z,100.00
2022-12-16T23:24:19.665Z,100.00
2022-12-16T23:27:04.948Z,100.00
2022-12-16T23:29:50.309Z,100.00
2022-12-16T23:32:35.712Z,100.00
2022-12-16T23:35:20.956Z,100.00
2022-12-16T23:38:06.314Z,100.00
2022-12-16T23:40:51.914Z,100.00
2022-12-16T23:43:37.325Z,100.00
2022-12-16T23:46:22.946Z,100.00
2022-12-16T23:49:08.442Z,100.00
2022-12-16T23:51:54.756Z,100.00
2022-12-16T23:54:41.634Z,100.00
2022-12-16T23:57:27.079Z,100.00
